Time;durP1;ratioP1;P1;durP2;ratioP2;P2;SDS_P1;SDS_P2;PMS_P1;PMS_P2;Temp;Humidity;BMP_temperature;BMP_pressure;BME280_temperature;BME280_humidity;BME280_pressure;Samples;Min_cycle;Max_cycle;Signal;HPM_P1;HPM_P2
2023/07/08 00:00:11;;;;;;;6.30;4.53;;;;;;;21.61;44.22;99635.72;5108529;28;20044;-70
2023/07/08 00:02:37;;;;;;;7.13;4.35;;;;;;;21.43;44.76;99627.56;5109569;28;20280;-72
2023/07/08 00:05:05;;;;;;;6.65;4.35;;;;;;;21.42;44.98;99621.31;5109348;28;20052;-71
2023/07/08 00:07:33;;;;;;;6.18;4.85;;;;;;;21.12;45.55;99613.47;5109465;28;20283;-70
2023/07/08 00:10:00;;;;;;;7.22;5.22;;;;;;;21.26;45.56;99636.41;5109178;28;20051;-72
2023/07/08 00:12:26;;;;;;;6.40;4.25;;;;;;;21.40;44.94;99636.81;5109128;28;20085;-72
2023/07/08 00:14:53;;;;;;;8.18;4.55;;;;;;;21.27;45.58;99627.34;5109374;28;20218;-71
2023/07/08 00:17:19;;;;;;;8.68;5.25;;;;;;;21.33;45.68;99632.13;5109051;28;20238;-71
2023/07/08 00:19:47;;;;;;;5.82;4.45;;;;;;;21.18;46.02;99631.75;5109267;28;20052;-71
2023/07/08 00:22:14;;;;;;;6.85;4.80;;;;;;;21.13;46.16;99644.81;5109463;28;20035;-71
2023/07/08 00:24:44;;;;;;;6.72;3.95;;;;;;;21.09;46.57;99638.88;5108651;28;20056;-72
2023/07/08 00:27:13;;;;;;;7.75;4.53;;;;;;;21.15;46.02;99648.22;5107839;28;20051;-72
2023/07/08 00:29:40;;;;;;;7.38;4.68;;;;;;;21.12;46.19;99646.66;5109339;28;20040;-71
2023/07/08 00:32:12;;;;;;;8.75;4.97;;;;;;;21.06;46.47;99647.25;5109018;28;20046;-72
2023/07/08 00:34:38;;;;;;;6.70;4.55;;;;;;;21.08;46.12;99639.00;5109218;28;20259;-71
2023/07/08 00:37:05;;;;;;;5.30;4.25;;;;;;;21.18;45.38;99639.00;5108636;28;20044;-72
2023/07/08 00:39:32;;;;;;;5.60;4.43;;;;;;;21.11;45.48;99644.97;5108545;28;20089;-71
2023/07/08 00:42:02;;;;;;;5.57;4.10;;;;;;;21.00;45.79;99638.84;5108792;28;20059;-70
2023/07/08 00:44:29;;;;;;;5.93;4.13;;;;;;;20.97;45.76;99639.13;5108766;28;20040;-71
2023/07/08 00:47:03;;;;;;;9.52;5.07;;;;;;;21.01;45.73;99624.38;5108665;28;20036;-72
2023/07/08 00:49:38;;;;;;;6.00;4.28;;;;;;;21.00;45.97;99617.28;5109272;28;20181;-71
2023/07/08 00:52:25;;;;;;;9.10;4.57;;;;;;;20.88;46.59;99624.69;5108612;28;20051;-72
2023/07/08 00:54:54;;;;;;;6.13;4.15;;;;;;;20.95;46.38;99624.97;5108339;28;20063;-72
2023/07/08 00:57:24;;;;;;;5.57;3.58;;;;;;;20.75;46.24;99600.75;5108095;28;20098;-71
2023/07/08 00:59:55;;;;;;;5.65;4.32;;;;;;;20.94;46.31;99616.03;5108738;28;20043;-71
2023/07/08 01:02:25;;;;;;;5.90;4.45;;;;;;;20.73;46.76;99616.19;5108440;28;20296;-71
2023/07/08 01:04:58;;;;;;;6.72;4.45;;;;;;;20.35;46.60;99554.28;5108385;28;20077;-71
2023/07/08 01:07:26;;;;;;;6.45;4.85;;;;;;;20.60;47.30;99620.16;5108599;28;20122;-70
2023/07/08 01:09:59;;;;;;;6.75;4.40;;;;;;;20.28;47.24;99570.16;5108274;28;20101;-71
2023/07/08 01:12:31;;;;;;;5.47;4.45;;;;;;;20.53;46.95;99616.34;5108006;28;20327;-71
2023/07/08 01:15:02;;;;;;;6.05;4.60;;;;;;;20.61;46.55;99617.34;5108200;28;20044;-71
2023/07/08 01:17:32;;;;;;;5.82;4.63;;;;;;;20.65;46.64;99616.06;5108140;28;20044;-71
2023/07/08 01:19:59;;;;;;;6.18;4.50;;;;;;;20.59;46.36;99627.41;5108359;28;20301;-70
2023/07/08 01:22:31;;;;;;;5.30;4.05;;;;;;;20.55;45.90;99619.75;5108056;28;20086;-72
2023/07/08 01:25:03;;;;;;;6.68;4.32;;;;;;;20.52;46.01;99618.19;5107814;28;20097;-71
2023/07/08 01:27:32;;;;;;;8.73;4.50;;;;;;;20.53;45.35;99606.41;5107904;28;20066;-71
2023/07/08 01:29:59;;;;;;;5.95;4.32;;;;;;;20.48;45.60;99609.53;5107891;28;20120;-71
2023/07/08 01:32:27;;;;;;;5.70;4.30;;;;;;;20.45;45.49;99615.19;5107604;28;20044;-71
2023/07/08 01:35:00;;;;;;;5.57;3.90;;;;;;;20.50;46.16;99612.94;5108359;28;20165;-72
2023/07/08 01:37:32;;;;;;;5.22;3.85;;;;;;;20.62;46.28;99616.34;5107659;28;20055;-71
2023/07/08 01:39:59;;;;;;;4.70;3.40;;;;;;;20.54;46.43;99607.28;5107617;28;20101;-71
2023/07/08 01:42:25;;;;;;;4.80;3.50;;;;;;;20.37;46.54;99606.97;5107938;28;20039;-71
2023/07/08 01:44:52;;;;;;;5.68;3.70;;;;;;;20.21;47.17;99606.66;5107532;28;20189;-71
2023/07/08 01:47:23;;;;;;;6.80;3.83;;;;;;;20.34;46.97;99604.56;5107193;28;20036;-72
2023/07/08 01:49:50;;;;;;;5.40;3.67;;;;;;;20.36;46.66;99604.44;5107482;28;20052;-71
2023/07/08 01:52:18;;;;;;;4.75;3.45;;;;;;;20.32;46.83;99611.09;5106348;28;20189;-71
2023/07/08 01:54:55;;;;;;;5.00;3.85;;;;;;;20.10;47.32;99602.25;5107432;28;20116;-72
2023/07/08 01:57:22;;;;;;;5.78;3.83;;;;;;;20.09;47.33;99602.38;5107582;28;20052;-72
2023/07/08 01:59:50;;;;;;;5.93;4.10;;;;;;;20.08;47.49;99598.00;5106229;28;20039;-72
2023/07/08 02:02:16;;;;;;;5.00;3.47;;;;;;;20.04;47.60;99597.41;5106503;28;20119;-72
2023/07/08 02:04:43;;;;;;;5.68;3.72;;;;;;;19.98;47.74;99589.91;5106137;28;20077;-72
2023/07/08 02:07:10;;;;;;;4.55;3.75;;;;;;;20.00;47.95;99592.47;5107118;28;20272;-71
2023/07/08 02:09:36;;;;;;;4.63;3.50;;;;;;;19.91;48.23;99593.28;5105211;28;20047;-72
2023/07/08 02:12:06;;;;;;;4.63;3.30;;;;;;;19.97;48.14;99590.03;5106408;28;20230;-71
2023/07/08 02:14:32;;;;;;;5.32;3.65;;;;;;;19.95;48.20;99594.72;5106804;28;20056;-72
2023/07/08 02:16:59;;;;;;;4.75;3.95;;;;;;;19.88;48.14;99589.03;5105828;28;20089;-72
2023/07/08 02:19:27;;;;;;;5.10;4.07;;;;;;;19.75;48.14;99591.94;5106903;28;20052;-72
2023/07/08 02:21:54;;;;;;;5.40;3.67;;;;;;;19.79;48.08;99584.44;5106659;28;20040;-72
2023/07/08 02:24:22;;;;;;;5.22;3.83;;;;;;;19.99;47.69;99582.69;5107218;28;20330;-72
2023/07/08 02:26:49;;;;;;;5.55;4.35;;;;;;;19.83;47.75;99575.16;5106511;28;20058;-72
2023/07/08 02:29:17;;;;;;;5.68;4.55;;;;;;;19.71;48.08;99579.75;5105587;28;20036;-72
2023/07/08 02:31:44;;;;;;;4.88;3.55;;;;;;;19.58;48.21;99581.00;5106432;28;20044;-72
2023/07/08 02:34:11;;;;;;;7.85;4.25;;;;;;;19.83;47.86;99575.16;5106954;28;20052;-72
2023/07/08 02:36:38;;;;;;;5.63;4.03;;;;;;;19.66;47.96;99573.94;5106594;28;20048;-72
2023/07/08 02:39:06;;;;;;;6.05;4.10;;;;;;;19.68;48.43;99565.75;5106618;28;20028;-72
2023/07/08 02:41:32;;;;;;;5.05;3.53;;;;;;;19.67;48.40;99570.25;5106303;28;20101;-72
2023/07/08 02:43:59;;;;;;;6.78;4.35;;;;;;;19.61;48.28;99572.66;5106188;28;20066;-72
2023/07/08 02:46:27;;;;;;;6.68;4.15;;;;;;;19.62;48.30;99574.34;5106192;28;20055;-72
2023/07/08 02:48:54;;;;;;;5.22;3.70;;;;;;;19.54;48.27;99575.03;5106856;28;20219;-73
2023/07/08 02:51:21;;;;;;;4.95;3.53;;;;;;;19.44;48.74;99576.84;5106681;28;20044;-72
2023/07/08 02:53:49;;;;;;;5.00;3.97;;;;;;;19.47;48.58;99574.72;5105170;28;20044;-72
2023/07/08 02:56:16;;;;;;;4.75;3.47;;;;;;;19.53;47.47;99574.19;5106164;28;20074;-72
2023/07/08 02:58:43;;;;;;;5.38;3.80;;;;;;;19.49;47.58;99578.13;5105856;28;20089;-72
2023/07/08 03:01:10;;;;;;;5.18;3.33;;;;;;;19.53;47.15;99587.63;5106190;28;20354;-72
2023/07/08 03:03:38;;;;;;;5.65;3.95;;;;;;;19.46;47.69;99591.00;5106141;28;20044;-73
2023/07/08 03:06:06;;;;;;;5.65;4.70;;;;;;;19.44;47.90;99588.44;5105895;28;20043;-72
2023/07/08 03:08:33;;;;;;;9.60;5.32;;;;;;;19.51;47.99;99578.84;5106073;28;20043;-72
2023/07/08 03:11:02;;;;;;;5.15;3.80;;;;;;;19.38;48.89;99585.41;5105895;28;20051;-72
2023/07/08 03:13:29;;;;;;;6.80;4.10;;;;;;;19.48;48.50;99581.81;5105790;28;20067;-72
2023/07/08 03:15:58;;;;;;;6.93;3.75;;;;;;;19.42;48.87;99587.72;5106288;28;20089;-72
2023/07/08 03:18:26;;;;;;;5.82;3.38;;;;;;;19.48;48.73;99583.66;5106803;28;20040;-72
2023/07/08 03:20:55;;;;;;;4.68;3.63;;;;;;;19.40;48.95;99587.00;5105596;28;20044;-72
2023/07/08 03:23:22;;;;;;;5.35;3.92;;;;;;;19.48;48.71;99595.25;5105933;28;20044;-73
2023/07/08 03:25:49;;;;;;;4.93;3.75;;;;;;;19.31;49.65;99593.16;5105515;28;20052;-72
2023/07/08 03:28:16;;;;;;;6.25;3.80;;;;;;;19.40;49.56;99589.69;5106101;28;20188;-71
2023/07/08 03:30:44;;;;;;;4.97;3.50;;;;;;;19.28;50.18;99606.88;5104752;28;20231;-72
2023/07/08 03:33:11;;;;;;;5.15;3.83;;;;;;;19.23;50.21;99601.03;5105807;28;20040;-72
2023/07/08 03:35:39;;;;;;;5.07;3.45;;;;;;;18.64;49.89;99528.31;5105817;28;20039;-72
2023/07/08 03:38:07;;;;;;;4.47;3.53;;;;;;;19.33;49.48;99601.94;5106016;28;20032;-72
2023/07/08 03:40:34;;;;;;;4.88;3.92;;;;;;;19.34;49.65;99609.00;5106038;28;20063;-72
2023/07/08 03:43:01;;;;;;;6.43;3.85;;;;;;;19.31;49.50;99613.81;5105429;28;20048;-72
2023/07/08 03:45:26;;;;;;;5.50;3.92;;;;;;;19.10;50.27;99616.50;5105683;28;20055;-72
2023/07/08 03:47:53;;;;;;;10.18;4.38;;;;;;;19.09;50.18;99615.66;5105907;28;20040;-72
2023/07/08 03:50:23;;;;;;;5.20;3.88;;;;;;;19.16;49.83;99619.53;5105661;28;20097;-72
2023/07/08 03:52:52;;;;;;;6.38;3.78;;;;;;;18.98;50.58;99625.63;5105436;28;20044;-72
2023/07/08 03:55:20;;;;;;;5.95;4.00;;;;;;;19.15;50.11;99619.66;5105665;28;20059;-72
2023/07/08 03:57:47;;;;;;;5.22;3.80;;;;;;;18.99;50.24;99622.81;5105925;28;20044;-72
2023/07/08 04:00:15;;;;;;;6.70;3.92;;;;;;;18.96;50.75;99632.97;5105602;28;20043;-72
2023/07/08 04:02:43;;;;;;;5.20;3.63;;;;;;;19.04;50.89;99614.34;5105554;28;20212;-72
2023/07/08 04:05:13;;;;;;;6.72;4.05;;;;;;;18.69;50.83;99559.16;5105588;28;20044;-72
2023/07/08 04:07:40;;;;;;;5.97;3.85;;;;;;;19.00;51.17;99616.47;5105744;28;20311;-72
2023/07/08 04:10:08;;;;;;;4.35;3.13;;;;;;;19.12;50.69;99612.72;5105730;28;20048;-72
2023/07/08 04:12:36;;;;;;;5.35;4.15;;;;;;;19.15;50.63;99627.72;5104404;28;20040;-71
2023/07/08 04:15:04;;;;;;;5.15;3.53;;;;;;;19.21;50.43;99619.13;5105206;28;20039;-72
2023/07/08 04:17:31;;;;;;;6.25;3.65;;;;;;;19.23;50.85;99630.59;5105437;28;20063;-72
2023/07/08 04:19:57;;;;;;;6.63;4.03;;;;;;;19.29;50.89;99624.69;5105669;28;20090;-72
2023/07/08 04:22:24;;;;;;;6.90;3.53;;;;;;;19.28;50.93;99630.19;5105136;28;20044;-72
2023/07/08 04:24:51;;;;;;;5.55;4.07;;;;;;;19.12;51.37;99639.56;5105071;28;20075;-72
2023/07/08 04:27:18;;;;;;;5.68;3.72;;;;;;;19.31;50.44;99627.25;5105104;28;20040;-72
2023/07/08 04:29:46;;;;;;;6.68;4.18;;;;;;;19.32;50.70;99635.16;5105280;28;20035;-72
2023/07/08 04:32:13;;;;;;;4.78;3.92;;;;;;;19.23;50.97;99627.91;5105045;28;20044;-72
2023/07/08 04:34:40;;;;;;;6.60;4.35;;;;;;;19.17;51.43;99631.97;5108978;28;20051;-72
2023/07/08 04:37:06;;;;;;;4.53;3.58;;;;;;;19.26;51.62;99624.94;5108938;28;20051;-72
2023/07/08 04:39:33;;;;;;;6.10;4.70;;;;;;;19.27;51.58;99626.66;5108368;28;20066;-72
2023/07/08 04:42:00;;;;;;;6.05;4.80;;;;;;;19.34;51.27;99619.75;5108812;28;20044;-72
2023/07/08 04:44:27;;;;;;;5.38;4.00;;;;;;;19.29;51.56;99624.69;5109049;28;20169;-72
2023/07/08 04:46:57;;;;;;;4.93;3.72;;;;;;;19.42;50.66;99622.66;5108757;28;20111;-72
2023/07/08 04:49:31;;;;;;;6.30;4.38;;;;;;;19.49;50.41;99628.34;5108393;28;20050;-72
2023/07/08 04:51:58;;;;;;;6.13;4.45;;;;;;;19.37;50.51;99635.63;5107559;28;20078;-72
2023/07/08 04:54:25;;;;;;;6.22;4.10;;;;;;;19.43;51.00;99624.38;5108339;28;20082;-72
2023/07/08 04:56:52;;;;;;;5.78;3.85;;;;;;;19.55;50.25;99627.81;5108566;28;20044;-72
2023/07/08 04:59:22;;;;;;;9.68;4.30;;;;;;;19.52;50.37;99626.25;5107919;28;20081;-72
2023/07/08 05:01:49;;;;;;;7.00;4.50;;;;;;;19.56;50.74;99624.13;5108734;28;20153;-71
2023/07/08 05:04:19;;;;;;;6.82;4.28;;;;;;;19.62;50.70;99628.13;5107573;28;20089;-72
2023/07/08 05:06:46;;;;;;;7.82;4.40;;;;;;;19.64;51.11;99632.38;5108104;28;20044;-73
2023/07/08 05:09:12;;;;;;;4.57;3.90;;;;;;;19.63;50.70;99633.38;5108270;28;20036;-72
2023/07/08 05:11:40;;;;;;;5.93;4.63;;;;;;;19.69;50.44;99632.81;5108558;28;20227;-72
2023/07/08 05:14:07;;;;;;;5.40;3.97;;;;;;;19.71;50.45;99632.69;5107491;28;20059;-72
2023/07/08 05:16:35;;;;;;;5.65;4.00;;;;;;;19.29;49.94;99557.50;5108222;28;20052;-72
2023/07/08 05:19:02;;;;;;;5.50;4.40;;;;;;;19.72;50.54;99616.41;5108135;28;20056;-72
2023/07/08 05:21:33;;;;;;;4.43;3.88;;;;;;;19.74;49.95;99625.19;5108053;28;20052;-72
2023/07/08 05:24:00;;;;;;;7.00;4.43;;;;;;;19.67;50.31;99604.38;5108096;28;20060;-72
2023/07/08 05:26:27;;;;;;;6.88;4.70;;;;;;;19.82;49.79;99622.72;5108022;28;20044;-72
2023/07/08 05:28:53;;;;;;;9.32;4.63;;;;;;;19.82;49.67;99620.03;5108169;28;20048;-72
2023/07/08 05:31:20;;;;;;;9.20;4.72;;;;;;;19.88;48.17;99618.63;5107566;28;20051;-72
2023/07/08 05:33:47;;;;;;;4.90;3.70;;;;;;;20.01;48.36;99618.38;5107862;28;20090;-72
2023/07/08 05:36:13;;;;;;;7.07;4.78;;;;;;;20.06;48.62;99619.66;5107808;28;20052;-71
2023/07/08 05:38:41;;;;;;;7.32;4.35;;;;;;;20.08;47.82;99620.38;5107726;28;20036;-72
2023/07/08 05:41:08;;;;;;;4.95;3.85;;;;;;;20.12;47.21;99619.09;5107643;28;20235;-72
2023/07/08 05:43:35;;;;;;;6.22;4.20;;;;;;;20.06;46.47;99622.34;5107696;28;20253;-72
2023/07/08 05:46:02;;;;;;;6.40;4.57;;;;;;;20.22;46.49;99624.53;5107373;28;20051;-72
2023/07/08 05:48:29;;;;;;;7.25;4.43;;;;;;;20.27;46.34;99626.81;5107484;28;20104;-72
2023/07/08 05:50:57;;;;;;;7.60;4.88;;;;;;;20.35;45.00;99621.56;5107284;28;20048;-72
2023/07/08 05:53:23;;;;;;;5.32;4.25;;;;;;;20.39;45.58;99613.06;5107769;28;20055;-72
2023/07/08 05:55:52;;;;;;;6.05;4.25;;;;;;;20.36;44.92;99617.88;5107089;28;20047;-72
2023/07/08 05:58:18;;;;;;;6.40;4.22;;;;;;;20.44;45.34;99626.13;5107395;28;20047;-72
2023/07/08 06:00:45;;;;;;;7.40;4.53;;;;;;;20.40;45.12;99616.63;5107347;28;20043;-72
2023/07/08 06:03:12;;;;;;;6.20;4.63;;;;;;;20.48;45.48;99612.22;5107036;28;20102;-72
2023/07/08 06:05:39;;;;;;;9.13;4.22;;;;;;;20.50;45.92;99614.78;5106605;28;20090;-72
2023/07/08 06:08:08;;;;;;;6.05;5.10;;;;;;;20.53;45.99;99619.88;5107235;28;20070;-72
2023/07/08 06:10:35;;;;;;;6.43;4.50;;;;;;;20.07;45.93;99546.03;5107135;28;20055;-72
2023/07/08 06:13:03;;;;;;;7.50;4.93;;;;;;;20.64;45.67;99606.28;5107052;28;20047;-73
2023/07/08 06:15:29;;;;;;;9.40;6.10;;;;;;;20.65;45.61;99605.28;5107318;28;20055;-72
2023/07/08 06:18:00;;;;;;;7.65;5.90;;;;;;;20.67;46.00;99614.06;5107007;28;20043;-72
2023/07/08 06:20:27;;;;;;;6.97;4.88;;;;;;;20.49;45.81;99581.63;5107230;28;20111;-73
2023/07/08 06:22:54;;;;;;;5.22;4.72;;;;;;;20.71;45.12;99611.94;5106916;28;20288;-73
2023/07/08 06:25:21;;;;;;;6.72;4.90;;;;;;;20.74;45.60;99614.34;5106493;28;20069;-72
2023/07/08 06:27:48;;;;;;;6.15;4.70;;;;;;;20.73;45.38;99613.50;5105669;28;20056;-73
2023/07/08 06:30:16;;;;;;;6.63;4.65;;;;;;;20.68;45.44;99605.00;5106702;28;20043;-73
2023/07/08 06:32:42;;;;;;;6.55;4.32;;;;;;;20.80;45.41;99609.25;5106755;28;20040;-72
2023/07/08 06:35:10;;;;;;;5.55;4.60;;;;;;;20.80;44.81;99617.31;5106693;28;20215;-73
2023/07/08 06:37:36;;;;;;;9.73;5.53;;;;;;;20.77;44.83;99617.59;5106595;28;20119;-72
2023/07/08 06:40:04;;;;;;;7.53;5.28;;;;;;;20.79;44.69;99612.94;5106526;28;20093;-72
2023/07/08 06:42:30;;;;;;;5.88;4.50;;;;;;;20.77;44.98;99609.53;5106188;28;20263;-72
2023/07/08 06:44:57;;;;;;;5.00;4.28;;;;;;;20.82;45.02;99612.63;5105791;28;20208;-72
2023/07/08 06:47:25;;;;;;;7.97;5.78;;;;;;;20.90;45.27;99609.22;5106641;28;20101;-73
2023/07/08 06:49:52;;;;;;;8.32;5.45;;;;;;;20.95;44.96;99595.31;5106470;28;20094;-72
2023/07/08 06:52:18;;;;;;;7.43;4.85;;;;;;;20.97;45.05;99596.03;5106375;28;20055;-73
2023/07/08 06:54:45;;;;;;;7.80;4.97;;;;;;;21.02;45.09;99591.06;5105898;28;20178;-72
2023/07/08 06:57:12;;;;;;;7.28;4.32;;;;;;;21.14;44.70;99589.91;5105947;28;20047;-72
2023/07/08 06:59:39;;;;;;;11.95;6.68;;;;;;;21.21;44.59;99596.44;5106418;28;20028;-72
2023/07/08 07:02:06;;;;;;;8.27;5.15;;;;;;;21.27;44.68;99598.53;5105132;28;20085;-72
2023/07/08 07:04:35;;;;;;;6.32;4.60;;;;;;;21.31;44.50;99591.84;5106487;28;20055;-72
2023/07/08 07:07:02;;;;;;;7.93;4.55;;;;;;;21.41;44.14;99589.97;5106112;28;20102;-72
2023/07/08 07:09:28;;;;;;;10.40;4.43;;;;;;;21.34;43.78;99582.63;5105974;28;20036;-72
2023/07/08 07:11:55;;;;;;;7.18;4.93;;;;;;;21.37;43.73;99585.88;5106107;28;20052;-72
2023/07/08 07:14:22;;;;;;;5.95;4.93;;;;;;;;;;5106212;28;20089;-72
2023/07/08 07:16:48;;;;;;;6.80;4.90;;;;;;;20.50;44.24;99407.47;5104843;28;20296;-72
2023/07/08 07:19:15;;;;;;;5.47;4.43;;;;;;;21.76;43.69;99585.69;5105687;28;20048;-73
2023/07/08 07:21:43;;;;;;;8.25;5.20;;;;;;;22.00;43.96;99583.31;5104884;28;20040;-72
2023/07/08 07:24:11;;;;;;;8.70;4.43;;;;;;;22.19;44.64;99587.72;5105526;28;20083;-73
2023/07/08 07:26:38;;;;;;;9.95;5.03;;;;;;;22.34;42.34;99583.50;5104695;28;20288;-72
2023/07/08 07:29:05;;;;;;;7.10;4.90;;;;;;;22.23;43.09;99594.50;5105796;28;20089;-72
2023/07/08 07:31:32;;;;;;;7.75;4.70;;;;;;;22.52;42.81;99594.31;5105825;28;20044;-72
2023/07/08 07:34:00;;;;;;;6.50;4.85;;;;;;;22.82;41.89;99592.22;5105848;28;20047;-73
2023/07/08 07:36:27;;;;;;;5.93;4.25;;;;;;;22.97;42.02;99588.81;5105892;28;20292;-72
2023/07/08 07:38:55;;;;;;;5.95;4.63;;;;;;;22.66;42.19;99593.81;5105730;28;20044;-72
2023/07/08 07:41:21;;;;;;;9.45;4.00;;;;;;;22.76;42.24;99590.16;5104581;28;20044;-73
2023/07/08 07:43:48;;;;;;;5.20;4.40;;;;;;;23.18;41.34;99576.78;5105966;28;20040;-72
2023/07/08 07:46:15;;;;;;;8.52;4.65;;;;;;;23.31;41.06;99574.53;5105775;28;20043;-72
2023/07/08 07:48:42;;;;;;;5.25;4.30;;;;;;;23.48;40.59;99579.00;5105650;28;20051;-73
2023/07/08 07:51:10;;;;;;;6.10;4.05;;;;;;;23.55;39.73;99585.47;5105715;28;20060;-72
2023/07/08 07:53:37;;;;;;;5.68;4.65;;;;;;;23.56;39.97;99581.75;5105424;28;20032;-73
2023/07/08 07:56:07;;;;;;;6.40;5.10;;;;;;;23.66;40.27;99589.72;5105660;28;20296;-73
2023/07/08 07:58:34;;;;;;;6.28;4.72;;;;;;;23.85;40.09;99581.34;5105889;28;20056;-72
2023/07/08 08:01:01;;;;;;;6.80;4.35;;;;;;;24.00;40.08;99585.16;5105564;28;20032;-73
2023/07/08 08:03:28;;;;;;;5.60;4.63;;;;;;;24.08;39.77;99586.19;5105623;28;20048;-73
2023/07/08 08:05:55;;;;;;;8.15;5.05;;;;;;;24.11;40.21;99588.56;5105439;28;20243;-73
2023/07/08 08:08:22;;;;;;;6.47;4.40;;;;;;;24.37;39.57;99594.72;5107789;28;20234;-73
2023/07/08 08:10:49;;;;;;;6.90;5.07;;;;;;;24.42;39.83;99578.81;5109393;28;20397;-74
2023/07/08 08:13:17;;;;;;;7.60;4.72;;;;;;;22.96;39.34;99305.19;5108293;28;20107;-73
2023/07/08 08:15:44;;;;;;;7.10;4.50;;;;;;;24.78;39.71;99576.66;5108905;28;20200;-72
2023/07/08 08:18:11;;;;;;;8.20;5.47;;;;;;;25.04;39.11;99576.47;5109245;28;20077;-73
2023/07/08 08:20:39;;;;;;;6.15;4.38;;;;;;;25.08;38.78;99580.53;5108990;28;20039;-73
2023/07/08 08:23:06;;;;;;;7.28;4.80;;;;;;;24.79;38.60;99574.78;5109307;28;20196;-73
2023/07/08 08:25:33;;;;;;;6.80;5.13;;;;;;;24.95;38.25;99574.75;5107851;28;20048;-73
2023/07/08 08:28:00;;;;;;;6.75;4.43;;;;;;;25.13;38.67;99574.59;5108813;28;20048;-72
2023/07/08 08:30:28;;;;;;;5.80;4.38;;;;;;;25.04;38.25;99578.34;5108972;28;20089;-73
2023/07/08 08:32:55;;;;;;;8.35;4.07;;;;;;;25.35;37.73;99573.06;5108956;28;20052;-73
2023/07/08 08:35:21;;;;;;;6.72;4.68;;;;;;;25.53;37.20;99570.97;5108661;28;20044;-73
2023/07/08 08:37:48;;;;;;;5.68;4.30;;;;;;;25.37;37.74;99573.72;5108914;28;20081;-73
2023/07/08 08:40:18;;;;;;;5.57;4.53;;;;;;;24.95;37.79;99507.00;5109152;28;20040;-73
2023/07/08 08:42:53;;;;;;;5.07;3.88;;;;;;;25.62;35.80;99572.63;5108465;28;20211;-73
2023/07/08 08:45:20;;;;;;;5.25;4.05;;;;;;;25.69;36.27;99567.34;5107685;28;20032;-73
2023/07/08 08:47:52;;;;;;;6.75;4.28;;;;;;;25.49;36.12;99516.19;5107554;28;20044;-72
2023/07/08 08:50:29;;;;;;;6.88;4.50;;;;;;;26.02;36.49;99573.47;5107786;28;20044;-73
2023/07/08 08:52:57;;;;;;;6.55;4.32;;;;;;;25.84;35.19;99573.72;5108688;28;20051;-72
2023/07/08 08:55:25;;;;;;;5.03;4.13;;;;;;;25.67;35.84;99529.50;5108582;28;20191;-73
2023/07/08 08:58:00;;;;;;;5.40;3.88;;;;;;;25.79;36.52;99560.66;5108336;28;20200;-73
2023/07/08 09:00:33;;;;;;;5.88;4.25;;;;;;;25.83;36.97;99561.16;5108541;28;20040;-73
2023/07/08 09:03:07;;;;;;;7.72;4.50;;;;;;;26.21;36.27;99541.28;5108707;28;20044;-73
2023/07/08 09:05:34;;;;;;;8.85;4.18;;;;;;;26.13;35.95;99549.47;5108688;28;20098;-73
2023/07/08 09:08:06;;;;;;;8.55;4.65;;;;;;;26.23;35.17;99544.66;5107139;28;20313;-73
2023/07/08 09:10:46;;;;;;;5.20;3.38;;;;;;;25.74;35.98;99484.34;5107976;28;20044;-73
2023/07/08 09:13:20;;;;;;;9.70;4.20;;;;;;;25.89;36.36;99539.56;5107117;28;20040;-72
2023/07/08 09:15:47;;;;;;;5.30;3.72;;;;;;;25.77;36.37;99540.16;5106995;28;20057;-73
2023/07/08 09:18:25;;;;;;;6.18;4.22;;;;;;;25.77;36.78;99537.44;5107852;28;20098;-73
2023/07/08 09:20:54;;;;;;;7.10;3.95;;;;;;;26.28;35.84;99551.41;5108396;28;20039;-72
2023/07/08 09:23:26;;;;;;;6.57;4.07;;;;;;;26.53;34.34;99542.03;5108206;28;20052;-73
2023/07/08 09:25:57;;;;;;;5.65;4.13;;;;;;;26.53;34.65;99542.88;5107612;28;20060;-73
2023/07/08 09:28:37;;;;;;;7.18;3.95;;;;;;;26.71;34.53;99548.03;5107723;28;20060;-74
2023/07/08 09:31:07;;;;;;;7.30;4.07;;;;;;;26.76;34.76;99545.59;5106592;28;20133;-73
2023/07/08 09:33:39;;;;;;;9.15;5.07;;;;;;;26.87;35.35;99533.44;5107732;28;20098;-73
2023/07/08 09:36:17;;;;;;;4.80;3.80;;;;;;;27.12;34.82;99517.72;5107473;28;20066;-73
2023/07/08 09:38:47;;;;;;;7.63;4.00;;;;;;;27.37;34.07;99521.03;5107864;28;20230;-73
2023/07/08 09:41:15;;;;;;;5.97;3.95;;;;;;;27.40;34.01;99523.38;5106517;28;20040;-73
2023/07/08 09:43:43;;;;;;;5.93;3.75;;;;;;;27.47;33.25;99524.31;5106535;28;20059;-73
2023/07/08 09:46:13;;;;;;;10.85;3.95;;;;;;;27.53;33.51;99515.38;5107878;28;20056;-72
2023/07/08 09:48:41;;;;;;;6.90;3.97;;;;;;;27.73;33.95;99513.78;5107179;28;20078;-72
2023/07/08 09:51:10;;;;;;;5.13;4.10;;;;;;;27.86;33.55;99507.69;5107263;28;20081;-72
2023/07/08 09:53:37;;;;;;;10.40;4.72;;;;;;;27.80;34.11;99502.97;5106338;28;20051;-71
2023/07/08 09:56:05;;;;;;;6.20;3.90;;;;;;;27.89;33.58;99501.84;5107158;28;20040;-74
2023/07/08 09:58:37;;;;;;;4.85;4.07;;;;;;;27.56;33.21;99506.00;5107366;28;20044;-72
2023/07/08 10:01:11;;;;;;;5.75;3.97;;;;;;;27.62;33.15;99505.25;5107026;28;20040;-74
2023/07/08 10:03:38;;;;;;;10.57;4.50;;;;;;;27.56;34.87;99467.88;5107286;28;20044;-72
2023/07/08 10:06:17;;;;;;;4.80;3.83;;;;;;;27.71;35.62;99498.69;5106668;28;20048;-70
2023/07/08 10:08:45;;;;;;;7.32;3.50;;;;;;;26.97;36.52;99495.09;5107082;28;20040;-72
2023/07/08 10:11:23;;;;;;;7.45;4.13;;;;;;;27.27;37.97;99496.81;5106721;28;20036;-72
2023/07/08 10:13:53;;;;;;;11.43;4.30;;;;;;;27.19;38.02;99434.31;5105799;28;20046;-72
2023/07/08 10:16:25;;;;;;;5.22;3.83;;;;;;;27.51;34.71;99441.25;5106854;28;20048;-72
2023/07/08 10:18:52;;;;;;;5.20;3.90;;;;;;;27.77;36.06;99496.03;5095653;28;20081;-72
2023/07/08 10:21:32;;;;;;;5.28;4.13;;;;;;;27.92;34.28;99478.84;5086593;28;20037;-71
2023/07/08 10:24:21;;;;;;;6.35;4.25;;;;;;;27.83;34.91;99485.41;5086598;28;20044;-72
2023/07/08 10:26:56;;;;;;;6.82;3.90;;;;;;;27.37;33.39;99486.50;5086104;28;20045;-72
2023/07/08 10:29:34;;;;;;;4.75;3.63;;;;;;;27.62;33.82;99481.59;5084812;28;20251;-72
2023/07/08 10:32:09;;;;;;;5.95;4.00;;;;;;;27.93;33.52;99480.53;5086310;28;20051;-72
2023/07/08 10:34:43;;;;;;;5.65;3.67;;;;;;;27.87;31.75;99476.69;5086084;28;20052;-72
2023/07/08 10:37:23;;;;;;;6.20;4.25;;;;;;;27.80;32.09;99483.91;5086067;28;20036;-72
2023/07/08 10:39:59;;;;;;;6.40;3.60;;;;;;;27.87;33.42;99470.41;5086592;28;20048;-72
2023/07/08 10:42:41;;;;;;;5.20;4.18;;;;;;;28.19;33.17;99471.78;5086443;28;20036;-72
2023/07/08 10:45:13;;;;;;;6.63;4.22;;;;;;;28.11;31.73;99468.13;5086382;28;20110;-72
2023/07/08 10:48:00;;;;;;;9.48;3.72;;;;;;;28.23;31.67;99475.78;5086004;28;20041;-72
2023/07/08 10:50:41;;;;;;;6.60;3.90;;;;;;;28.18;31.92;99467.38;5086004;28;20048;-72
2023/07/08 10:53:36;;;;;;;9.30;4.63;;;;;;;28.30;30.87;99461.19;5086023;28;20044;-72
2023/07/08 10:56:13;;;;;;;6.55;4.22;;;;;;;28.33;30.59;99468.13;5085701;28;20301;-72
2023/07/08 10:59:01;;;;;;;6.03;3.90;;;;;;;28.01;31.08;99462.16;5085649;28;20040;-71
2023/07/08 11:01:35;;;;;;;5.65;3.95;;;;;;;28.11;31.86;99464.56;5085943;28;20048;-72
2023/07/08 11:04:28;;;;;;;4.22;3.10;;;;;;;28.31;31.74;99462.03;5085529;28;20041;-72
2023/07/08 11:07:00;;;;;;;5.78;3.63;;;;;;;28.44;30.94;99459.44;5085887;28;20044;-72
2023/07/08 11:09:36;;;;;;;5.20;3.80;;;;;;;28.47;30.67;99458.22;5085779;28;20036;-72
2023/07/08 11:12:09;;;;;;;5.32;3.58;;;;;;;28.41;30.66;99449.75;5084979;28;20049;-71
2023/07/08 11:14:46;;;;;;;5.57;3.45;;;;;;;28.23;30.11;99454.00;5085753;28;20048;-72
2023/07/08 11:17:19;;;;;;;5.28;3.97;;;;;;;28.02;30.77;99449.41;5085352;28;20254;-72
2023/07/08 11:19:57;;;;;;;6.20;3.22;;;;;;;27.83;31.36;99447.28;5085420;28;20099;-71
2023/07/08 11:22:24;;;;;;;6.95;4.38;;;;;;;27.95;30.39;99443.88;5085598;28;20059;-71
2023/07/08 11:24:56;;;;;;;5.10;3.40;;;;;;;28.06;30.26;99454.25;5085419;28;20266;-73
2023/07/08 11:27:27;;;;;;;4.63;3.20;;;;;;;28.02;30.08;99422.16;5085355;28;20045;-71
2023/07/08 11:29:57;;;;;;;7.57;3.80;;;;;;;28.37;30.43;99436.72;5084425;28;20269;-70
2023/07/08 11:32:28;;;;;;;8.20;3.58;;;;;;;28.34;30.62;99437.94;5085774;28;20130;-71
2023/07/08 11:34:57;;;;;;;7.80;4.05;;;;;;;28.15;30.64;99454.13;5085447;28;20067;-71
2023/07/08 11:37:26;;;;;;;5.13;3.20;;;;;;;28.28;30.25;99441.47;5085276;28;20045;-72
2023/07/08 11:39:59;;;;;;;5.07;3.40;;;;;;;27.97;31.23;99452.69;5085516;28;20051;-72
2023/07/08 11:42:36;;;;;;;7.93;3.25;;;;;;;27.90;30.40;99446.34;5088668;28;20273;-71